createdAt,value
2016-08-22T00:00:24.599Z,16.04
2016-08-22T00:01:37.574Z,16.11
2016-08-22T00:02:50.747Z,16.08
2016-08-22T00:04:03.734Z,16.07
2016-08-22T00:05:16.719Z,16.07
2016-08-22T00:06:29.713Z,16.1
2016-08-22T00:07:42.896Z,16.11
2016-08-22T00:08:55.863Z,16.1
2016-08-22T00:10:08.876Z,16.02
2016-08-22T00:11:21.855Z,16.06
2016-08-22T00:12:34.837Z,16.13
2016-08-22T00:13:47.816Z,16.08
2016-08-22T00:15:00.999Z,16.02
2016-08-22T00:16:13.976Z,16.1
2016-08-22T00:17:26.963Z,16.13
2016-08-22T00:18:40.138Z,16.1
2016-08-22T00:19:53.127Z,16.07
2016-08-22T00:21:06.106Z,16.11
2016-08-22T00:22:19.075Z,16.11
2016-08-22T00:23:32.061Z,16.08
2016-08-22T00:24:45.039Z,16.11
2016-08-22T00:25:58.021Z,16.07
2016-08-22T00:27:11.005Z,16.06
2016-08-22T00:28:23.983Z,16.08
2016-08-22T00:29:37.162Z,16.11
2016-08-22T00:30:50.138Z,16.11
2016-08-22T00:32:03.120Z,16.07
2016-08-22T00:33:16.312Z,16.13
2016-08-22T00:34:29.289Z,16.06
2016-08-22T00:35:42.469Z,16.08
2016-08-22T00:36:55.647Z,16.13
2016-08-22T00:38:08.634Z,16.06
2016-08-22T00:39:21.818Z,16.1
2016-08-22T00:40:34.794Z,15.96
2016-08-22T00:41:47.972Z,16.07
2016-08-22T00:43:00.952Z,16.11
2016-08-22T00:44:13.946Z,15.98
2016-08-22T00:45:26.918Z,15.96
2016-08-22T00:46:39.892Z,15.95
2016-08-22T00:47:53.076Z,16.02
2016-08-22T00:49:06.063Z,15.99
2016-08-22T00:50:19.035Z,15.96
2016-08-22T00:51:32.018Z,15.98
2016-08-22T00:52:44.995Z,15.96
2016-08-22T00:53:58.044Z,15.98
2016-08-22T00:55:11.026Z,15.88
2016-08-22T00:56:24.002Z,15.95
2016-08-22T00:57:36.980Z,15.99
2016-08-22T00:58:50.177Z,15.96
2016-08-22T01:00:03.359Z,15.96
2016-08-22T01:01:16.344Z,15.93
2016-08-22T01:02:29.525Z,15.93
2016-08-22T01:03:42.502Z,15.96
2016-08-22T01:04:55.468Z,15.95
2016-08-22T01:06:08.437Z,16
2016-08-22T01:07:21.408Z,15.96
2016-08-22T01:08:34.388Z,16
2016-08-22T01:09:47.371Z,15.92
2016-08-22T01:11:00.543Z,15.95
2016-08-22T01:12:13.512Z,16
2016-08-22T01:13:26.893Z,15.93
2016-08-22T01:14:39.873Z,15.93
2016-08-22T01:15:53.057Z,15.91
2016-08-22T01:17:06.032Z,15.98
2016-08-22T01:18:19.017Z,16.02
2016-08-22T01:19:31.997Z,16.02
2016-08-22T01:20:44.981Z,15.96
2016-08-22T01:21:57.967Z,15.96
2016-08-22T01:23:10.947Z,15.96
2016-08-22T01:24:23.921Z,15.96
2016-08-22T01:25:37.103Z,15.98
2016-08-22T01:26:50.283Z,15.89
2016-08-22T01:28:03.273Z,15.91
2016-08-22T01:29:16.254Z,15.93
2016-08-22T01:30:29.220Z,15.95
2016-08-22T01:31:42.393Z,15.91
2016-08-22T01:32:55.368Z,15.95
2016-08-22T01:34:08.354Z,15.91
2016-08-22T01:35:21.342Z,15.95
2016-08-22T01:36:34.316Z,15.91
2016-08-22T01:37:47.308Z,15.99
2016-08-22T01:39:00.278Z,15.92
2016-08-22T01:40:13.455Z,15.98
2016-08-22T01:41:26.437Z,15.91
2016-08-22T01:42:39.628Z,15.92
2016-08-22T01:43:53.001Z,15.95
2016-08-22T01:45:05.973Z,15.92
2016-08-22T01:46:18.946Z,15.95
2016-08-22T01:47:31.917Z,15.84
2016-08-22T01:48:44.891Z,15.98
2016-08-22T01:49:58.063Z,15.88
2016-08-22T01:51:11.051Z,15.86
2016-08-22T01:52:24.027Z,15.96
2016-08-22T01:53:37.203Z,15.88
2016-08-22T01:54:50.233Z,15.91
2016-08-22T01:56:03.217Z,15.81
2016-08-22T01:57:16.195Z,15.92
2016-08-22T01:58:29.170Z,15.93
2016-08-22T01:59:42.151Z,15.86
2016-08-22T02:00:55.127Z,15.88
2016-08-22T02:02:08.104Z,15.84
2016-08-22T02:03:21.284Z,15.95
2016-08-22T02:04:34.264Z,15.83
2016-08-22T02:05:47.236Z,15.88
2016-08-22T02:07:00.223Z,15.84
2016-08-22T02:08:13.404Z,15.86
2016-08-22T02:09:26.392Z,15.89
2016-08-22T02:10:39.373Z,15.89
2016-08-22T02:11:52.356Z,15.88
2016-08-22T02:13:05.340Z,15.92
2016-08-22T02:14:18.323Z,15.89
2016-08-22T02:15:31.301Z,15.91
2016-08-22T02:16:44.278Z,15.83
2016-08-22T02:17:57.458Z,15.88
2016-08-22T02:19:10.455Z,15.8
2016-08-22T02:20:23.638Z,15.88
2016-08-22T02:21:36.623Z,15.83
2016-08-22T02:22:49.803Z,15.84
2016-08-22T02:24:02.791Z,15.88
2016-08-22T02:25:15.770Z,15.81
2016-08-22T02:26:28.952Z,15.86
2016-08-22T02:27:42.126Z,15.88
2016-08-22T02:28:55.102Z,15.81
2016-08-22T02:30:08.093Z,15.83
2016-08-22T02:31:21.086Z,15.88
2016-08-22T02:32:34.283Z,15.8
2016-08-22T02:33:47.257Z,15.77
2016-08-22T02:35:00.453Z,15.84
2016-08-22T02:36:13.440Z,15.73
2016-08-22T02:37:26.625Z,15.74
2016-08-22T02:38:39.804Z,15.73
2016-08-22T02:39:52.802Z,15.77
2016-08-22T02:41:05.792Z,15.77
2016-08-22T02:42:18.773Z,15.71
2016-08-22T02:43:31.756Z,15.7
2016-08-22T02:44:44.745Z,15.65
2016-08-22T02:45:57.726Z,15.6
2016-08-22T02:47:10.701Z,15.7
2016-08-22T02:48:23.690Z,15.6
2016-08-22T02:49:36.677Z,15.6
2016-08-22T02:50:49.655Z,15.58
2016-08-22T02:52:02.637Z,15.58
2016-08-22T02:53:15.623Z,15.6
2016-08-22T02:54:28.605Z,15.59
2016-08-22T02:55:41.852Z,15.56
2016-08-22T02:56:55.025Z,15.59
2016-08-22T02:58:08.204Z,15.56
2016-08-22T02:59:21.191Z,15.53
2016-08-22T03:00:34.159Z,15.56
2016-08-22T03:01:47.145Z,15.52
2016-08-22T03:03:00.122Z,15.47
2016-08-22T03:04:13.103Z,15.49
2016-08-22T03:05:26.088Z,15.45
2016-08-22T03:06:39.269Z,15.47
2016-08-22T03:07:52.256Z,15.51
2016-08-22T03:09:05.244Z,15.53
2016-08-22T03:10:18.618Z,15.38
2016-08-22T03:11:31.591Z,15.4
2016-08-22T03:12:44.766Z,15.45
2016-08-22T03:13:57.746Z,15.45
2016-08-22T03:15:10.933Z,15.44
2016-08-22T03:16:24.109Z,15.34
2016-08-22T03:17:37.084Z,15.3
2016-08-22T03:18:50.062Z,15.35
2016-08-22T03:20:03.041Z,15.33
2016-08-22T03:21:16.230Z,15.34
2016-08-22T03:22:29.216Z,15.3
2016-08-22T03:23:42.192Z,15.3
2016-08-22T03:24:55.171Z,15.27
2016-08-22T03:26:08.350Z,15.37
2016-08-22T03:27:21.534Z,15.33
2016-08-22T03:28:34.715Z,15.27
2016-08-22T03:29:47.693Z,15.23
2016-08-22T03:31:00.665Z,15.23
2016-08-22T03:32:13.640Z,15.26
2016-08-22T03:33:26.618Z,15.27
2016-08-22T03:34:39.798Z,15.22
2016-08-22T03:35:52.983Z,15.27
2016-08-22T03:37:05.963Z,15.22
2016-08-22T03:38:19.147Z,15.26
2016-08-22T03:39:32.134Z,15.31
2016-08-22T03:40:45.124Z,15.25
2016-08-22T03:41:58.300Z,15.2
2016-08-22T03:43:11.291Z,15.2
2016-08-22T03:44:24.272Z,15.18
2016-08-22T03:45:37.465Z,15.22
2016-08-22T03:46:50.631Z,15.19
2016-08-22T03:48:03.612Z,15.23
2016-08-22T03:49:16.600Z,15.2
2016-08-22T03:50:29.584Z,15.26
2016-08-22T03:51:42.556Z,15.18
2016-08-22T03:52:55.534Z,15.16
2016-08-22T03:54:08.506Z,15.22
2016-08-22T03:55:21.485Z,15.2
2016-08-22T03:56:34.506Z,15.2
2016-08-22T03:57:47.483Z,15.12
2016-08-22T03:59:00.455Z,15.16
2016-08-22T04:00:13.457Z,15.16
2016-08-22T04:01:26.426Z,15.16
2016-08-22T04:02:39.406Z,15.15
2016-08-22T04:03:52.580Z,15.15
2016-08-22T04:05:05.765Z,15.15
2016-08-22T04:06:18.740Z,15.15
2016-08-22T04:07:31.713Z,15.1
2016-08-22T04:08:44.719Z,15.15
2016-08-22T04:09:57.691Z,15.04
2016-08-22T04:11:10.682Z,15.08
2016-08-22T04:12:23.663Z,15.08
2016-08-22T04:13:36.645Z,15.2
2016-08-22T04:14:49.619Z,15.18
2016-08-22T04:16:03.003Z,15.13
2016-08-22T04:17:16.195Z,15.08
2016-08-22T04:18:29.171Z,15.12
2016-08-22T04:19:42.152Z,15.22
2016-08-22T04:20:55.132Z,15.19
2016-08-22T04:22:08.109Z,15.15
2016-08-22T04:23:21.292Z,15.15
2016-08-22T04:24:34.264Z,15.22
2016-08-22T04:25:47.457Z,15.18
2016-08-22T04:27:00.441Z,15.18
2016-08-22T04:28:13.427Z,15.16
2016-08-22T04:29:26.404Z,15.27
2016-08-22T04:30:39.384Z,15.25
2016-08-22T04:31:52.358Z,15.23
2016-08-22T04:33:05.346Z,15.22
2016-08-22T04:34:18.334Z,15.23
2016-08-22T04:35:31.523Z,15.2
2016-08-22T04:36:44.497Z,15.18
2016-08-22T04:37:57.476Z,15.2
2016-08-22T04:39:10.448Z,15.15
2016-08-22T04:40:23.423Z,15.18
2016-08-22T04:41:36.392Z,15.23
2016-08-22T04:42:49.375Z,15.27
2016-08-22T04:44:02.559Z,15.35
2016-08-22T04:45:15.537Z,15.27
2016-08-22T04:46:28.530Z,15.3
2016-08-22T04:47:41.508Z,15.3
2016-08-22T04:48:54.478Z,15.33
2016-08-22T04:50:07.457Z,15.34
2016-08-22T04:51:20.428Z,15.45
2016-08-22T04:52:33.411Z,15.35
2016-08-22T04:53:46.384Z,15.44
2016-08-22T04:54:59.368Z,15.43
2016-08-22T04:56:12.351Z,15.43
2016-08-22T04:57:25.587Z,15.44
2016-08-22T04:58:38.587Z,15.38
2016-08-22T04:59:51.569Z,15.44
2016-08-22T05:01:04.548Z,15.47
2016-08-22T05:02:17.523Z,15.49
2016-08-22T05:03:30.504Z,15.51
2016-08-22T05:04:43.707Z,15.47
2016-08-22T05:05:56.684Z,15.55
2016-08-22T05:07:09.662Z,15.55
2016-08-22T05:08:22.652Z,15.56
2016-08-22T05:09:35.830Z,15.53
2016-08-22T05:10:48.802Z,15.49
2016-08-22T05:12:01.785Z,15.49
2016-08-22T05:13:14.772Z,15.4
2016-08-22T05:14:27.746Z,15.4
2016-08-22T05:15:40.726Z,15.4
2016-08-22T05:16:53.704Z,15.44
2016-08-22T05:18:06.677Z,15.49
2016-08-22T05:19:19.690Z,15.43
2016-08-22T05:20:32.682Z,15.44
2016-08-22T05:21:45.871Z,15.45
2016-08-22T05:22:58.850Z,15.4
2016-08-22T05:24:11.833Z,15.44
2016-08-22T05:25:24.813Z,15.43
2016-08-22T05:26:37.997Z,15.45
2016-08-22T05:27:50.970Z,15.43
2016-08-22T05:29:04.150Z,15.47
2016-08-22T05:30:17.322Z,15.4
2016-08-22T05:31:30.294Z,15.45
2016-08-22T05:32:43.502Z,15.44
2016-08-22T05:33:56.483Z,15.47
2016-08-22T05:35:09.455Z,15.47
2016-08-22T05:36:22.435Z,15.45
2016-08-22T05:37:35.437Z,15.49
2016-08-22T05:38:48.415Z,15.51
2016-08-22T05:40:01.397Z,15.43
2016-08-22T05:41:14.391Z,15.43
2016-08-22T05:42:27.382Z,15.45
2016-08-22T05:43:40.363Z,15.37
2016-08-22T05:44:53.342Z,15.31
2016-08-22T05:46:06.324Z,15.34
2016-08-22T05:47:19.319Z,15.34
2016-08-22T05:48:32.297Z,15.35
2016-08-22T05:49:45.281Z,15.27
2016-08-22T05:50:58.458Z,15.35
2016-08-22T05:52:11.444Z,15.34
2016-08-22T05:53:24.624Z,15.33
2016-08-22T05:54:37.815Z,15.34
2016-08-22T05:55:50.801Z,15.45
2016-08-22T05:57:03.768Z,15.44
2016-08-22T05:58:16.801Z,15.41
2016-08-22T05:59:29.793Z,15.43
2016-08-22T06:00:42.777Z,15.4
2016-08-22T06:01:55.760Z,15.43
2016-08-22T06:03:08.743Z,15.45
2016-08-22T06:04:21.720Z,15.55
2016-08-22T06:05:34.893Z,15.45
2016-08-22T06:06:47.871Z,15.43
2016-08-22T06:08:00.854Z,15.58
2016-08-22T06:09:14.049Z,15.51
2016-08-22T06:10:27.031Z,15.49
2016-08-22T06:11:40.009Z,15.51
2016-08-22T06:12:52.988Z,15.53
2016-08-22T06:14:05.972Z,15.47
2016-08-22T06:15:18.951Z,15.51
2016-08-22T06:16:31.944Z,15.52
2016-08-22T06:17:44.949Z,15.47
2016-08-22T06:18:58.128Z,15.6
2016-08-22T06:20:11.097Z,15.58
2016-08-22T06:21:24.476Z,15.6
2016-08-22T06:22:37.460Z,15.59
2016-08-22T06:23:50.442Z,15.6
2016-08-22T06:25:03.418Z,15.68
2016-08-22T06:26:16.606Z,15.67
2016-08-22T06:27:29.594Z,15.62
2016-08-22T06:28:42.592Z,15.7
2016-08-22T06:29:55.579Z,15.68
2016-08-22T06:31:08.568Z,15.71
2016-08-22T06:32:21.750Z,15.78
2016-08-22T06:33:34.728Z,15.77
2016-08-22T06:34:47.914Z,15.73
2016-08-22T06:36:01.298Z,15.77
2016-08-22T06:37:14.485Z,15.68
2016-08-22T06:38:27.464Z,15.7
2016-08-22T06:39:40.440Z,15.63
2016-08-22T06:40:53.421Z,15.73
2016-08-22T06:42:06.404Z,15.74
2016-08-22T06:43:19.400Z,15.73
2016-08-22T06:44:32.372Z,15.7
2016-08-22T06:45:45.356Z,15.67
2016-08-22T06:46:58.341Z,15.78
2016-08-22T06:48:11.339Z,15.83
2016-08-22T06:49:24.327Z,15.74
2016-08-22T06:50:37.307Z,15.7
2016-08-22T06:51:50.284Z,15.8
2016-08-22T06:53:03.473Z,15.88
2016-08-22T06:54:16.443Z,15.88
2016-08-22T06:55:29.424Z,15.8
2016-08-22T06:56:42.402Z,15.83
2016-08-22T06:57:55.394Z,15.81
2016-08-22T06:59:08.428Z,15.88
2016-08-22T07:00:21.417Z,15.83
2016-08-22T07:01:34.396Z,15.84
2016-08-22T07:02:47.374Z,15.95
2016-08-22T07:04:00.562Z,15.95
2016-08-22T07:05:13.545Z,15.91
2016-08-22T07:06:26.534Z,15.98
2016-08-22T07:07:39.533Z,15.92
2016-08-22T07:08:52.515Z,15.96
2016-08-22T07:10:05.499Z,15.93
2016-08-22T07:11:18.484Z,15.99
2016-08-22T07:12:31.670Z,15.99
2016-08-22T07:13:44.657Z,15.96
2016-08-22T07:14:57.648Z,15.96
2016-08-22T07:16:10.628Z,16.02
2016-08-22T07:17:23.617Z,15.95
2016-08-22T07:18:36.607Z,15.96
2016-08-22T07:19:49.584Z,15.93
2016-08-22T07:21:02.573Z,15.99
2016-08-22T07:22:15.565Z,15.95
2016-08-22T07:23:28.545Z,15.95
2016-08-22T07:24:41.519Z,15.93
2016-08-22T07:25:54.703Z,16.07
2016-08-22T07:27:07.679Z,16.06
2016-08-22T07:28:20.682Z,16.07
2016-08-22T07:29:33.871Z,16.06
2016-08-22T07:30:46.860Z,16.08
2016-08-22T07:32:00.049Z,16.18
2016-08-22T07:33:13.032Z,16.22
2016-08-22T07:34:26.014Z,16.16
2016-08-22T07:35:38.990Z,16.22
2016-08-22T07:36:51.969Z,16.21
2016-08-22T07:38:04.989Z,16.18
2016-08-22T07:39:17.969Z,16.21
2016-08-22T07:40:31.155Z,16.27
2016-08-22T07:41:44.148Z,16.26
2016-08-22T07:42:57.143Z,16.37
2016-08-22T07:44:10.114Z,16.39
2016-08-22T07:45:23.105Z,16.42
2016-08-22T07:46:36.090Z,16.36
2016-08-22T07:47:49.076Z,16.39
2016-08-22T07:49:02.263Z,16.39
2016-08-22T07:50:15.246Z,16.47
2016-08-22T07:51:28.242Z,16.55
2016-08-22T07:52:41.476Z,16.58
2016-08-22T07:53:54.458Z,16.59
2016-08-22T07:55:07.646Z,16.59
2016-08-22T07:56:20.831Z,16.58
2016-08-22T07:57:33.812Z,16.59
2016-08-22T07:58:46.803Z,16.58
2016-08-22T08:00:00.042Z,16.59
2016-08-22T08:01:13.425Z,16.62
2016-08-22T08:02:26.409Z,16.59
2016-08-22T08:03:39.392Z,16.55
2016-08-22T08:04:52.588Z,16.52
2016-08-22T08:06:05.771Z,16.52
2016-08-22T08:07:18.965Z,16.49
2016-08-22T08:08:32.149Z,16.51
2016-08-22T08:09:45.142Z,16.57
2016-08-22T08:10:58.123Z,16.49
2016-08-22T08:12:11.307Z,16.57
2016-08-22T08:13:24.281Z,16.51
2016-08-22T08:14:37.261Z,16.55
2016-08-22T08:15:50.280Z,16.57
2016-08-22T08:17:03.457Z,16.52
2016-08-22T08:18:16.635Z,16.59
2016-08-22T08:19:29.617Z,16.58
2016-08-22T08:20:42.596Z,16.66
2016-08-22T08:21:55.575Z,16.65
2016-08-22T08:23:08.556Z,16.63
2016-08-22T08:24:21.552Z,16.63
2016-08-22T08:25:34.526Z,16.7
2016-08-22T08:26:47.504Z,16.69
2016-08-22T08:28:00.491Z,16.72
2016-08-22T08:29:13.487Z,16.59
2016-08-22T08:30:26.558Z,16.66
2016-08-22T08:31:39.745Z,16.72
2016-08-22T08:32:52.729Z,16.69
2016-08-22T08:34:05.710Z,16.57
2016-08-22T08:35:18.697Z,16.69
2016-08-22T08:36:31.686Z,16.65
2016-08-22T08:37:44.873Z,16.76
2016-08-22T08:38:57.859Z,16.73
2016-08-22T08:40:11.038Z,16.72
2016-08-22T08:41:24.020Z,16.72
2016-08-22T08:42:37.005Z,16.74
2016-08-22T08:43:49.984Z,16.85
2016-08-22T08:45:02.968Z,16.87
2016-08-22T08:46:15.949Z,16.91
2016-08-22T08:47:28.937Z,16.91
2016-08-22T08:48:41.916Z,17.02
2016-08-22T08:49:54.894Z,16.94
2016-08-22T08:51:07.878Z,16.99
2016-08-22T08:52:20.868Z,16.91
2016-08-22T08:53:33.867Z,16.99
2016-08-22T08:54:47.054Z,16.9
2016-08-22T08:56:00.043Z,16.92
2016-08-22T08:57:13.029Z,16.95
2016-08-22T08:58:26.035Z,16.88
2016-08-22T08:59:39.015Z,16.92
2016-08-22T09:00:52.050Z,16.92
2016-08-22T09:02:05.046Z,16.92
2016-08-22T09:03:18.225Z,17
2016-08-22T09:04:31.205Z,17
2016-08-22T09:05:44.187Z,17.02
2016-08-22T09:06:57.166Z,17.02
2016-08-22T09:08:10.156Z,17.05
2016-08-22T09:09:23.141Z,17.07
2016-08-22T09:10:36.328Z,16.94
2016-08-22T09:11:49.302Z,16.99
2016-08-22T09:13:02.492Z,16.99
2016-08-22T09:14:15.475Z,16.97
2016-08-22T09:15:28.460Z,16.97
2016-08-22T09:16:41.442Z,16.99
2016-08-22T09:17:54.427Z,16.99
2016-08-22T09:19:07.408Z,16.97
2016-08-22T09:20:20.410Z,17.02
2016-08-22T09:21:33.399Z,16.97
2016-08-22T09:22:46.385Z,16.99
2016-08-22T09:23:59.369Z,17.02
2016-08-22T09:25:12.346Z,16.99
2016-08-22T09:26:25.533Z,17
2016-08-22T09:27:38.520Z,16.84
2016-08-22T09:28:51.513Z,16.99
2016-08-22T09:30:04.708Z,16.94
2016-08-22T09:31:17.697Z,16.92
2016-08-22T09:32:30.676Z,16.97
2016-08-22T09:33:43.660Z,16.97
2016-08-22T09:34:56.647Z,16.97
2016-08-22T09:36:09.829Z,17.05
2016-08-22T09:37:22.816Z,17.12
2016-08-22T09:38:35.802Z,17
2016-08-22T09:39:48.784Z,17.07
2016-08-22T09:41:01.764Z,17.09
2016-08-22T09:42:14.746Z,17.07
2016-08-22T09:43:28.134Z,16.97
2016-08-22T09:44:41.114Z,16.95
2016-08-22T09:45:54.099Z,16.97
2016-08-22T09:47:07.074Z,16.99
2016-08-22T09:48:20.055Z,16.99
2016-08-22T09:49:33.061Z,16.88
2016-08-22T09:50:46.047Z,16.9
2016-08-22T09:51:59.036Z,16.88
2016-08-22T09:53:12.418Z,16.92
2016-08-22T09:54:25.403Z,16.92
2016-08-22T09:55:38.408Z,16.9
2016-08-22T09:56:51.593Z,16.77
2016-08-22T09:58:04.581Z,16.81
2016-08-22T09:59:17.761Z,16.81
2016-08-22T10:00:30.739Z,16.84
2016-08-22T10:01:43.782Z,16.87
2016-08-22T10:02:56.775Z,16.84
2016-08-22T10:04:09.957Z,16.85
2016-08-22T10:05:22.939Z,16.85
2016-08-22T10:06:35.929Z,16.85
2016-08-22T10:07:48.913Z,16.92
2016-08-22T10:09:01.912Z,16.91
2016-08-22T10:10:14.895Z,16.91
2016-08-22T10:11:27.883Z,16.94
2016-08-22T10:12:40.869Z,16.94
2016-08-22T10:13:53.866Z,16.95
2016-08-22T10:15:06.872Z,16.95
2016-08-22T10:16:19.847Z,16.99
2016-08-22T10:17:32.837Z,16.97
2016-08-22T10:18:45.809Z,16.97
2016-08-22T10:19:58.999Z,16.94
2016-08-22T10:21:12.188Z,16.95
2016-08-22T10:22:25.170Z,16.91
2016-08-22T10:23:38.142Z,16.92
2016-08-22T10:24:51.130Z,16.9
2016-08-22T10:26:04.321Z,16.95
2016-08-22T10:27:17.317Z,16.95
2016-08-22T10:28:30.503Z,17
2016-08-22T10:29:43.695Z,16.99
2016-08-22T10:30:56.687Z,17.02
2016-08-22T10:32:09.674Z,16.99
2016-08-22T10:33:22.652Z,16.99
2016-08-22T10:34:35.630Z,17
2016-08-22T10:35:48.613Z,17
2016-08-22T10:37:01.596Z,17
2016-08-22T10:38:14.574Z,17.02
2016-08-22T10:39:27.572Z,16.97
2016-08-22T10:40:40.555Z,17
2016-08-22T10:41:53.537Z,17.03
2016-08-22T10:43:06.515Z,17
2016-08-22T10:44:19.510Z,17.07
2016-08-22T10:45:32.494Z,17.06
2016-08-22T10:46:45.482Z,17.09
2016-08-22T10:47:58.463Z,17.1
2016-08-22T10:49:11.647Z,17.03
2016-08-22T10:50:24.639Z,17.06
2016-08-22T10:51:37.623Z,17.03
2016-08-22T10:52:50.604Z,17.02
2016-08-22T10:54:03.584Z,17.09
2016-08-22T10:55:16.567Z,17.09
2016-08-22T10:56:29.759Z,17.06
2016-08-22T10:57:42.993Z,17.06
2016-08-22T10:58:55.991Z,17.13
2016-08-22T11:00:08.983Z,17.15
2016-08-22T11:01:21.962Z,17.13
2016-08-22T11:02:35.197Z,17.17
2016-08-22T11:03:48.173Z,17.13
2016-08-22T11:05:01.358Z,17.21
2016-08-22T11:06:14.335Z,17.12
2016-08-22T11:07:27.520Z,17.15
2016-08-22T11:08:40.717Z,17.25
2016-08-22T11:09:53.698Z,17.3
2016-08-22T11:11:06.686Z,17.25
2016-08-22T11:12:19.670Z,17.2
2016-08-22T11:13:32.647Z,17.27
2016-08-22T11:14:45.632Z,17.25
2016-08-22T11:15:58.615Z,17.35
2016-08-22T11:17:11.808Z,17.25
2016-08-22T11:18:24.790Z,17.3
2016-08-22T11:19:37.762Z,17.25
2016-08-22T11:20:50.761Z,17.3
2016-08-22T11:22:03.745Z,17.31
2016-08-22T11:23:16.733Z,17.27
2016-08-22T11:24:29.713Z,17.21
2016-08-22T11:25:42.705Z,17.24
2016-08-22T11:26:55.697Z,17.25
2016-08-22T11:28:08.678Z,17.22
2016-08-22T11:29:21.862Z,17.28
2016-08-22T11:30:34.843Z,17.25
2016-08-22T11:31:47.828Z,17.3
2016-08-22T11:33:01.009Z,17.28
2016-08-22T11:34:14.189Z,17.31
2016-08-22T11:35:27.165Z,17.28
2016-08-22T11:36:40.154Z,17.3
2016-08-22T11:37:53.330Z,17.36
2016-08-22T11:39:06.301Z,17.35
2016-08-22T11:40:19.281Z,17.39
2016-08-22T11:41:32.275Z,17.47
2016-08-22T11:42:45.268Z,17.46
2016-08-22T11:43:58.239Z,17.45
2016-08-22T11:45:11.416Z,17.49
2016-08-22T11:46:24.397Z,17.54
2016-08-22T11:47:37.386Z,17.6
2016-08-22T11:48:50.362Z,17.54
2016-08-22T11:50:03.354Z,17.49
2016-08-22T11:51:16.335Z,17.57
2016-08-22T11:52:29.336Z,17.57
2016-08-22T11:53:42.529Z,17.66
2016-08-22T11:54:55.516Z,17.68
2016-08-22T11:56:08.703Z,17.69
2016-08-22T11:57:21.682Z,17.49
2016-08-22T11:58:34.667Z,17.68
2016-08-22T11:59:47.653Z,17.62
2016-08-22T12:01:00.631Z,17.63
2016-08-22T12:02:13.614Z,17.55
2016-08-22T12:03:26.855Z,17.68
2016-08-22T12:04:39.833Z,17.66
2016-08-22T12:05:52.809Z,17.63
2016-08-22T12:07:05.792Z,17.71
2016-08-22T12:08:18.779Z,17.6
2016-08-22T12:09:31.764Z,17.73
2016-08-22T12:10:44.948Z,17.73
2016-08-22T12:11:57.936Z,17.65
2016-08-22T12:13:11.121Z,17.68
2016-08-22T12:14:24.101Z,17.71
2016-08-22T12:15:37.079Z,17.73
2016-08-22T12:16:50.058Z,17.71
2016-08-22T12:18:03.036Z,17.68
2016-08-22T12:19:16.021Z,17.71
2016-08-22T12:20:28.994Z,17.79
2016-08-22T12:21:41.974Z,17.79
2016-08-22T12:22:54.973Z,17.73
2016-08-22T12:24:07.960Z,17.83
2016-08-22T12:25:20.933Z,17.98
2016-08-22T12:26:34.127Z,17.86
2016-08-22T12:27:47.109Z,17.9
2016-08-22T12:29:00.288Z,17.9
2016-08-22T12:30:13.261Z,18.02
2016-08-22T12:31:26.239Z,18.02
2016-08-22T12:32:39.423Z,18.02
2016-08-22T12:33:52.426Z,18.01
2016-08-22T12:35:05.606Z,18.06
2016-08-22T12:36:18.590Z,18.08
2016-08-22T12:37:31.575Z,18.08
2016-08-22T12:38:44.566Z,18.06
2016-08-22T12:39:57.552Z,18.01
2016-08-22T12:41:10.538Z,18.02
2016-08-22T12:42:23.717Z,18.02
2016-08-22T12:43:36.718Z,18.08
2016-08-22T12:44:49.690Z,18.02
2016-08-22T12:46:02.669Z,18.11
2016-08-22T12:47:15.665Z,17.98
2016-08-22T12:48:28.649Z,17.98
2016-08-22T12:49:41.632Z,17.9
2016-08-22T12:50:54.823Z,17.95
2016-08-22T12:52:07.816Z,18.02
2016-08-22T12:53:20.800Z,17.92
2016-08-22T12:54:33.784Z,17.9
2016-08-22T12:55:46.772Z,17.94
2016-08-22T12:56:59.757Z,17.94
2016-08-22T12:58:12.734Z,17.88
2016-08-22T12:59:25.716Z,17.86
2016-08-22T13:00:38.917Z,17.9
2016-08-22T13:01:51.897Z,17.9
2016-08-22T13:03:04.870Z,17.9
2016-08-22T13:04:17.902Z,17.94
2016-08-22T13:05:30.890Z,17.94
2016-08-22T13:06:43.865Z,18.01
2016-08-22T13:07:57.246Z,17.99
2016-08-22T13:09:10.223Z,17.98
2016-08-22T13:10:23.205Z,17.99
2016-08-22T13:11:36.183Z,17.96
2016-08-22T13:12:49.169Z,17.96
2016-08-22T13:14:02.360Z,17.99
2016-08-22T13:15:15.354Z,17.96
2016-08-22T13:16:28.334Z,18.02
2016-08-22T13:17:41.518Z,18.02
2016-08-22T13:18:54.702Z,18.05
2016-08-22T13:20:07.697Z,17.98
2016-08-22T13:21:20.875Z,18.1
2016-08-22T13:22:33.878Z,17.98
2016-08-22T13:23:46.869Z,18.03
2016-08-22T13:24:59.851Z,18.05
2016-08-22T13:26:13.142Z,18.06
2016-08-22T13:27:26.122Z,18.1
2016-08-22T13:28:39.110Z,18.08
2016-08-22T13:29:52.309Z,18.08
2016-08-22T13:31:05.298Z,18.1
2016-08-22T13:32:18.486Z,18.11
2016-08-22T13:33:31.471Z,18.16
2016-08-22T13:34:44.455Z,18.14
2016-08-22T13:35:57.431Z,18.1
2016-08-22T13:37:10.425Z,18.1
2016-08-22T13:38:23.419Z,18.08
2016-08-22T13:39:36.611Z,18.1
2016-08-22T13:40:49.592Z,18.13
2016-08-22T13:42:02.597Z,18.16
2016-08-22T13:43:15.581Z,18.13
2016-08-22T13:44:28.577Z,18.19
2016-08-22T13:45:41.573Z,18.21
2016-08-22T13:46:54.572Z,18.11
2016-08-22T13:48:07.559Z,18.11
2016-08-22T13:49:20.550Z,18.03
2016-08-22T13:50:33.537Z,18.11
2016-08-22T13:51:46.726Z,18.03
2016-08-22T13:52:59.905Z,18.13
2016-08-22T13:54:12.888Z,18.2
2016-08-22T13:55:25.867Z,18.16
2016-08-22T13:56:38.848Z,18.17
2016-08-22T13:57:51.823Z,18.2
2016-08-22T13:59:04.809Z,18.19
2016-08-22T14:00:17.795Z,18.32
2016-08-22T14:01:30.991Z,18.26
2016-08-22T14:02:43.972Z,18.35
2016-08-22T14:03:56.965Z,18.31
2016-08-22T14:05:10.193Z,18.35
2016-08-22T14:06:23.182Z,18.32
2016-08-22T14:07:36.165Z,18.34
2016-08-22T14:08:49.158Z,18.34
2016-08-22T14:10:02.148Z,18.32
2016-08-22T14:11:15.136Z,18.35
2016-08-22T14:12:28.121Z,18.36
2016-08-22T14:13:41.116Z,18.35
2016-08-22T14:14:54.121Z,18.34
2016-08-22T14:16:07.103Z,18.29
2016-08-22T14:17:20.090Z,18.38
2016-08-22T14:18:33.075Z,18.39
2016-08-22T14:19:46.266Z,18.47
2016-08-22T14:20:59.268Z,18.51
2016-08-22T14:22:12.248Z,18.53
2016-08-22T14:23:25.220Z,18.56
2016-08-22T14:24:38.192Z,18.6
2016-08-22T14:25:51.387Z,18.59
2016-08-22T14:27:04.381Z,18.66
2016-08-22T14:28:17.355Z,18.68
2016-08-22T14:29:30.335Z,18.66
2016-08-22T14:30:43.318Z,18.66
2016-08-22T14:31:56.304Z,18.74
2016-08-22T14:33:09.495Z,18.69
2016-08-22T14:34:22.480Z,18.75
2016-08-22T14:35:35.452Z,18.66
2016-08-22T14:36:48.647Z,18.65
2016-08-22T14:38:01.644Z,18.63
2016-08-22T14:39:14.830Z,18.6
2016-08-22T14:40:28.015Z,18.61
2016-08-22T14:41:41.203Z,18.68
2016-08-22T14:42:54.192Z,18.61
2016-08-22T14:44:07.182Z,18.6
2016-08-22T14:45:20.183Z,18.6
2016-08-22T14:46:33.173Z,18.69
2016-08-22T14:47:46.162Z,18.68
2016-08-22T14:48:59.370Z,18.71
2016-08-22T14:50:12.355Z,18.72
2016-08-22T14:51:25.342Z,18.76
2016-08-22T14:52:38.344Z,18.81
2016-08-22T14:53:51.332Z,18.9
2016-08-22T14:55:04.333Z,18.9
2016-08-22T14:56:17.338Z,18.93
2016-08-22T14:57:30.537Z,19.02
2016-08-22T14:58:43.915Z,18.99
2016-08-22T14:59:56.908Z,19.13
2016-08-22T15:01:09.888Z,19.15
2016-08-22T15:02:22.872Z,19.1
2016-08-22T15:03:35.854Z,19.15
2016-08-22T15:04:48.835Z,19.12
2016-08-22T15:06:01.870Z,19.13
2016-08-22T15:07:14.851Z,19.17
2016-08-22T15:08:27.839Z,19.23
2016-08-22T15:09:40.834Z,19.24
2016-08-22T15:10:53.816Z,19.25
2016-08-22T15:12:06.811Z,19.24
2016-08-22T15:13:19.803Z,19.12
2016-08-22T15:14:32.793Z,19.23
2016-08-22T15:15:45.775Z,19.19
2016-08-22T15:16:58.747Z,19.23
2016-08-22T15:18:11.731Z,19.24
2016-08-22T15:19:24.722Z,19.17
2016-08-22T15:20:37.702Z,19.25
2016-08-22T15:21:50.683Z,19.12
2016-08-22T15:23:03.666Z,19.19
2016-08-22T15:24:16.647Z,19.27
2016-08-22T15:25:29.641Z,19.15
2016-08-22T15:26:42.625Z,19.23
2016-08-22T15:27:55.801Z,19.24
2016-08-22T15:29:08.982Z,19.28
2016-08-22T15:30:22.177Z,19.25
2016-08-22T15:31:35.184Z,19.2
2016-08-22T15:32:48.374Z,19.2
2016-08-22T15:34:01.365Z,19.4
2016-08-22T15:35:14.359Z,19.43
2016-08-22T15:36:27.342Z,19.35
2016-08-22T15:37:40.329Z,19.46
2016-08-22T15:38:53.333Z,19.43
2016-08-22T15:40:06.320Z,19.49
2016-08-22T15:41:19.307Z,19.6
2016-08-22T15:42:32.291Z,19.57
2016-08-22T15:43:45.268Z,19.7
2016-08-22T15:44:58.260Z,19.57